Santa Rita, Montana
Current Conditions -  °F | °C
As of 12:56 AM on Monday 22 Dec 2014 (Local Time) from KCTB Reporting Station
Clear Clear  
Wind Chill: 21°   Ceiling: Unl
Heat Index: 30°   Visibility: 10mi
Dew Point: 22°   Wind: 12mph
Humidity: 72%   Direction: 280°W
Pressure: 29.69"   Gusts: NA
Location:  48.7°N, 112.32°W
Report Text: KCTB 220756Z AUTO 28010KT 10SM CLR M01/M06 A2969 RMK AO2 SLP072 T10111056
Loading
Personal Weather Stations






























Interactive Weather Map New forecast layout! Learn more

10-Day Weather Forecast

Advertisements
Track Severe Weather on mobile